Terminal Aerodrome Forecast
Issued by NWS

Home | Current Version | Previous Version | Graphics & Text | Print | Product List | Glossary On
Versions: 1 2 3 4 5 6 7 8 9 10 11 12 13 14 15 16 17 18 19 20 21 22
803
FTUS43 KTOP 221139
TAFFOE
TAF
KFOE 221139Z 2212/2312 19003KT P6SM FEW250 WS007/23035KT
     FM221500 21012KT P6SM FEW250
     FM230000 30004KT P6SM FEW150=

USA.gov is the U.S. government's official web portal to all federal, state and local government web resources and services.